< Cyclone 200802 2008 Season Cyclone 200806 >
Cyclone 200803 (Guba)
General InformationDetailed Track InformationTrack Information on Google MapsList of All Images || ResourceGoogle EarthGE AnimationAtom FeedGeoJSON
Detalied Best Track Wind (Time Zone = UTC)
Year Month Day Hour Lat. Long. Wind (kt) Gust (kt) Direc. of Major Storm Axis Radius of Major Storm Axis (nm) Radius of Minor Storm Axis (nm) Direc. of Major Gale Axis Radius of Major Gale Axis (nm) Radius of Minor Gale Axis (nm) Image
2007 11 14 00 -11.0 146.9 30 45 symmetric - - symmetric - - Image
2007 11 14 06 -10.7 146.7 35 50 symmetric - - symmetric - - Image
2007 11 14 12 -10.2 146.4 35 50 symmetric - - symmetric - - Image
2007 11 14 18 -10.6 145.7 35 50 symmetric - - symmetric - - Image
2007 11 15 00 -10.5 145.9 40 55 symmetric - - symmetric - - Image
2007 11 15 06 -10.6 146.2 45 65 symmetric - - symmetric - - Image
2007 11 15 12 -10.5 146.5 60 85 symmetric - - symmetric - - Image
2007 11 15 18 -10.8 146.7 65 90 symmetric - - symmetric - - Image
2007 11 16 00 -11.2 146.8 65 90 symmetric - - symmetric - - Image
2007 11 16 06 -11.3 147.0 65 90 symmetric - - symmetric - - Image
2007 11 16 12 -11.4 147.1 65 90 symmetric - - symmetric - - Image
2007 11 16 18 -11.4 147.1 65 90 symmetric - - symmetric - - Image
2007 11 17 00 -11.2 147.3 65 90 symmetric - - symmetric - - Image
2007 11 17 06 -11.6 147.5 60 85 symmetric - - symmetric - - Image
2007 11 17 12 -11.9 147.4 50 70 symmetric - - symmetric - - Image
2007 11 17 18 -12.3 146.9 45 65 symmetric - - symmetric - - Image
2007 11 18 00 -12.3 146.7 40 55 symmetric - - symmetric - - Image
2007 11 18 06 -12.5 146.6 35 50 symmetric - - symmetric - - Image
2007 11 18 12 -12.5 146.1 35 50 symmetric - - symmetric - - Image
2007 11 18 18 -12.5 145.1 35 50 symmetric - - symmetric - - Image
2007 11 19 00 -12.0 144.8 35 50 symmetric - - symmetric - - Image
2007 11 19 06 -10.7 145.0 35 50 symmetric - - symmetric - - Image
2007 11 19 12 -10.2 144.9 30 45 symmetric - - symmetric - - Image
< Cyclone 200802 2008 Season Cyclone 200806 >

Help